In Arte — V7AS3 — position and weather

sailwx.info

Track history (hours):
 
Tides and Currents Weather Stations Pressure Air Temp Water Temp Dewpoint Dewpoint Depression Visibility Wind Speed Wind Dir Waves Ship Positions

In Arte

Last reported at 2018-Jun-16 14:30 UTC. Time now 2018-Jun-22 07:45 UTC.
Position S 27°49' E 154°01'.

Length 273 m; draft 6 m.

Type: Cargo ship. MMSI: 538005059.

Date/timePositionNaut miles runAvg speedWind from/ knotsBaromVisibWave heightAir tempDewpointWater temp
2018-Jun-16 14:30S 27°49' E 154°01'5 9.5
2018-Jun-16 14:00S 27°54' E 154°01'20 9.4
2018-Jun-16 11:55S 28°13' E 154°01'26410.2
2018-Jun-15 10:09S 32°30' E 152°50'311.6
2018-Jun-15 09:54S 32°33' E 152°49'411.2
2018-Jun-15 09:30S 32°36' E 152°47'612.1
2018-Jun-15 09:00S 32°40' E 152°41'611.4
2018-Jun-15 08:30S 32°44' E 152°36'611.5
2018-Jun-15 08:00S 32°47' E 152°30'612.1
2018-Jun-15 07:30S 32°50' E 152°24'612.2
2018-Jun-15 07:00S 32°52' E 152°17'611.6
2018-Jun-15 06:30S 32°54' E 152°11'611.1
2018-Jun-15 06:00S 32°56' E 152°04'611.6
2018-Jun-15 05:30S 32°57' E 151°58'510.7
2018-Jun-15 05:00S 32°56' E 151°51'3 6.7
2018-Jun-15 04:30S 32°55' E 151°48'2 3.3
2018-Jun-15 04:00S 32°54' E 151°46'1 0.4
2018-Jun-15 01:44S 32°53' E 151°46'0 0.0
2018-Jun-15 00:29S 32°53' E 151°46'0 0.0
2018-Jun-14 22:17S 32°53' E 151°46'0 0.0
2018-Jun-14 21:59S 32°53' E 151°46'0 0.0
2018-Jun-14 21:26S 32°53' E 151°46'0 0.0
2018-Jun-14 20:59S 32°53' E 151°46'0 0.0
2018-Jun-14 19:23S 32°53' E 151°46'0 0.0
2018-Jun-14 18:53S 32°53' E 151°46'0 0.0
2018-Jun-14 18:29S 32°53' E 151°46'0 0.0
2018-Jun-14 17:56S 32°53' E 151°46'0 0.0
2018-Jun-14 17:29S 32°53' E 151°46'0 0.0
2018-Jun-14 16:59S 32°53' E 151°46'0 0.0
2018-Jun-14 16:23S 32°53' E 151°46'0 0.0
2018-Jun-14 15:50S 32°53' E 151°46'0 0.0
2018-Jun-14 15:26S 32°53' E 151°46'0 0.0
2018-Jun-14 14:59S 32°53' E 151°46'0 0.0
2018-Jun-14 14:29S 32°53' E 151°46'0 0.0
2018-Jun-14 13:59S 32°53' E 151°46'0 0.0
2018-Jun-14 13:29S 32°53' E 151°46'0 0.1
2018-Jun-14 13:00S 32°53' E 151°46'2 3.2
2018-Jun-14 12:30S 32°55' E 151°46'3 6.5
2018-Jun-14 12:01S 32°55' E 151°50'4 8.4
2018-Jun-14 11:31S 32°59' E 151°53'3 5.9
2018-Jun-14 11:00S 33°01' E 151°51'510.8
2018-Jun-14 10:30S 33°06' E 151°48'510.0
2018-Jun-14 10:01S 33°09' E 151°43'0 0.4
2018-Jun-14 09:31S 33°09' E 151°43'0 0.1
2018-Jun-14 08:47S 33°09' E 151°43'0 0.0
2018-Jun-13 15:08S 33°09' E 151°43'0 0.0
2018-Jun-13 10:35S 33°09' E 151°43'0 0.0
2018-Jun-12 22:56S 33°09' E 151°43'0 0.0
2018-Jun-12 22:26S 33°09' E 151°43'0 0.0
2018-Jun-12 21:56S 33°09' E 151°43'0 0.0
2018-Jun-12 21:26S 33°09' E 151°43'0 0.0
2018-Jun-12 20:56S 33°09' E 151°43'0 0.0
2018-Jun-12 20:26S 33°09' E 151°43'0 0.0
2018-Jun-12 19:56S 33°09' E 151°43'0 0.0
2018-Jun-12 19:26S 33°09' E 151°43'0 0.0
2018-Jun-12 18:59S 33°09' E 151°43'0 0.0
2018-Jun-12 18:29S 33°09' E 151°43'0 0.0
2018-Jun-12 17:56S 33°09' E 151°43'0 0.0
2018-Jun-12 17:29S 33°09' E 151°43'0 0.1
2018-Jun-12 16:44S 33°09' E 151°43'0 0.2
2018-Jun-12 16:26S 33°09' E 151°43'0 0.0
2018-Jun-12 15:53S 33°09' E 151°43'0 0.0
2018-Jun-12 15:23S 33°09' E 151°43'0 0.0
2018-Jun-12 14:59S 33°09' E 151°43'0 0.1
2018-Jun-12 14:29S 33°09' E 151°43'0 0.0
2018-Jun-12 13:59S 33°09' E 151°43'0 0.0
2018-Jun-12 13:26S 33°09' E 151°43'0 0.0
2018-Jun-12 12:56S 33°09' E 151°43'0 0.1
2018-Jun-12 12:29S 33°09' E 151°43'0 0.1
2018-Jun-12 11:59S 33°09' E 151°43'0 0.0
2018-Jun-12 11:29S 33°09' E 151°43'0 0.1
2018-Jun-12 10:59S 33°09' E 151°43'0 0.0
2018-Jun-12 10:29S 33°09' E 151°43'0 0.0
2018-Jun-12 09:56S 33°09' E 151°43'0 0.0
2018-Jun-12 09:29S 33°09' E 151°43'0 0.0
2018-Jun-12 07:08S 33°09' E 151°43'0 0.0
2018-Jun-12 06:47S 33°09' E 151°43'0 0.0
2018-Jun-12 05:59S 33°09' E 151°43'0 0.0
2018-Jun-12 05:02S 33°09' E 151°43'0 0.0
2018-Jun-12 04:50S 33°09' E 151°43'0 0.0
2018-Jun-12 04:29S 33°09' E 151°43'0 0.0
2018-Jun-12 02:08S 33°09' E 151°43'0 0.0
2018-Jun-12 01:50S 33°09' E 151°43'0 0.0
2018-Jun-12 01:29S 33°09' E 151°43'0 0.0
2018-Jun-12 00:59S 33°09' E 151°43'0 0.0
2018-Jun-12 00:29S 33°09' E 151°43'0 0.0
2018-Jun-11 23:59S 33°09' E 151°43'0 0.0
2018-Jun-11 23:29S 33°09' E 151°43'0 0.1
2018-Jun-11 22:59S 33°09' E 151°43'0 0.0
2018-Jun-11 22:11S 33°09' E 151°43'0 0.1
2018-Jun-11 21:59S 33°09' E 151°43'0 0.1
2018-Jun-11 21:29S 33°09' E 151°43'0 0.0
2018-Jun-11 20:47S 33°09' E 151°43'0 0.2
2018-Jun-11 20:26S 33°09' E 151°43'0 0.0
2018-Jun-11 19:08S 33°09' E 151°43'0 0.1
2018-Jun-11 18:44S 33°09' E 151°43'0 0.0
2018-Jun-11 18:23S 33°09' E 151°43'0 0.1
2018-Jun-11 17:59S 33°09' E 151°43'0 0.0
2018-Jun-11 17:23S 33°09' E 151°43'0 0.0
2018-Jun-11 16:59S 33°09' E 151°43'0 0.0
2018-Jun-11 16:29S 33°09' E 151°43'0 0.1
2018-Jun-11 15:59S 33°09' E 151°43'0 0.1
2018-Jun-11 15:29S 33°09' E 151°43'0 0.2
2018-Jun-11 14:59S 33°09' E 151°43'0 0.1
2018-Jun-11 14:29S 33°09' E 151°43'0 0.1
2018-Jun-11 13:59S 33°09' E 151°43'0 0.1
2018-Jun-11 13:23S 33°09' E 151°43'0 0.0
2018-Jun-11 12:17S 33°09' E 151°43'0 0.1
2018-Jun-11 11:53S 33°09' E 151°43'0 0.0
2018-Jun-11 11:29S 33°09' E 151°43'0 0.0
2018-Jun-11 10:56S 33°09' E 151°43'0 0.0
2018-Jun-11 10:20S 33°09' E 151°43'0 0.0
2018-Jun-11 08:23S 33°09' E 151°43'0 0.0
2018-Jun-11 06:59S 33°09' E 151°43'0 0.0
2018-Jun-11 06:29S 33°09' E 151°43'0 0.0
2018-Jun-10 17:44S 33°09' E 151°43'0 0.1
2018-Jun-10 17:20S 33°09' E 151°43'0 0.1
2018-Jun-10 15:47S 33°09' E 151°43'0 0.0
2018-Jun-10 06:50S 33°09' E 151°43'0 0.0
2018-Jun-10 04:26S 33°09' E 151°43'0 0.0
2018-Jun-09 00:50S 33°09' E 151°43'0 0.0
2018-Jun-08 22:29S 33°09' E 151°43'0 0.1
2018-Jun-08 21:29S 33°09' E 151°43'0 0.0
2018-Jun-08 20:50S 33°09' E 151°43'0 0.0
2018-Jun-08 20:29S 33°09' E 151°43'0 0.0
2018-Jun-08 19:53S 33°09' E 151°43'0 0.0
2018-Jun-08 11:26S 33°09' E 151°43'0 0.0
2018-Jun-08 09:44S 33°09' E 151°43'0 0.0
2018-Jun-08 09:14S 33°09' E 151°43'0 0.0
2018-Jun-08 08:59S 33°09' E 151°43'0 0.1
2018-Jun-08 08:20S 33°09' E 151°43'0 0.1
2018-Jun-08 07:50S 33°09' E 151°43'0 0.0
2018-Jun-08 07:26S 33°09' E 151°43'0 0.0
2018-Jun-08 05:20S 33°09' E 151°43'0 0.0
2018-Jun-08 03:59S 33°09' E 151°43'0 0.0
2018-Jun-08 03:29S 33°09' E 151°43'0 0.0
2018-Jun-08 02:59S 33°09' E 151°43'0 0.1
2018-Jun-08 02:29S 33°09' E 151°43'0 0.1
2018-Jun-08 01:59S 33°09' E 151°43'0 0.0
2018-Jun-08 01:26S 33°09' E 151°43'0 0.0
2018-Jun-08 00:59S 33°09' E 151°43'0 0.0
2018-Jun-08 00:29S 33°09' E 151°43'0 0.0
2018-Jun-07 23:59S 33°09' E 151°43'0 0.0
2018-Jun-07 23:26S 33°09' E 151°43'0 0.0
2018-Jun-07 22:59S 33°09' E 151°43'0 0.1
2018-Jun-07 22:26S 33°09' E 151°43'0 0.1
2018-Jun-07 21:59S 33°09' E 151°43'0 0.1
2018-Jun-07 21:29S 33°09' E 151°43'0 0.0
2018-Jun-07 20:56S 33°09' E 151°43'0 0.0
2018-Jun-07 20:20S 33°09' E 151°43'0 0.1
2018-Jun-07 19:56S 33°09' E 151°43'0 0.0
2018-Jun-07 19:29S 33°09' E 151°43'0 0.0
2018-Jun-07 18:59S 33°09' E 151°43'0 0.0
2018-Jun-07 18:29S 33°09' E 151°43'0 0.0
2018-Jun-07 17:59S 33°09' E 151°43'0 0.1
2018-Jun-07 17:08S 33°09' E 151°43'0 0.3
2018-Jun-07 16:56S 33°09' E 151°43'0 0.1
2018-Jun-07 16:08S 33°09' E 151°43'0 0.1
2018-Jun-07 15:56S 33°09' E 151°43'0 0.0
2018-Jun-07 15:05S 33°09' E 151°43'0 0.1
2018-Jun-07 14:59S 33°09' E 151°43'0 0.0
2018-Jun-07 11:32S 33°09' E 151°43'0 0.0
2018-Jun-07 05:02S 33°09' E 151°43'0 0.0
2018-Jun-07 04:38S 33°09' E 151°43'0 0.0
2018-Jun-07 04:26S 33°09' E 151°43'0 0.0
2018-Jun-07 03:56S 33°09' E 151°43'0 0.0
2018-Jun-07 03:26S 33°09' E 151°43'0 0.0
2018-Jun-06 23:05S 33°09' E 151°43'10 1.3
2018-Jun-06 15:41S 33°04' E 151°52'313.1
2018-Jun-06 15:27S 33°02' E 151°55'612.6
2018-Jun-06 15:00S 32°59' E 152°01'714.3
2018-Jun-06 14:30S 32°57' E 152°09'  
Track history (hours):
 
Tides and Currents Weather Stations Pressure Air Temp Water Temp Dewpoint Dewpoint Depression Visibility Wind Speed Wind Dir Waves Ship Positions

In Arte

Last reported at 2018-Jun-16 14:30 UTC. Time now 2018-Jun-22 07:45 UTC.
Position S 27°49' E 154°01'.

Length 273 m; draft 6 m.

Type: Cargo ship. MMSI: 538005059.

Date/timePositionNaut miles runAvg speedWind from/ knotsBaromVisibWave heightAir tempDewpointWater temp
2018-Jun-16 14:30S 27°49' E 154°01'5 9.5
2018-Jun-16 14:00S 27°54' E 154°01'20 9.4
2018-Jun-16 11:55S 28°13' E 154°01'26410.2
2018-Jun-15 10:09S 32°30' E 152°50'311.6
2018-Jun-15 09:54S 32°33' E 152°49'411.2
2018-Jun-15 09:30S 32°36' E 152°47'612.1
2018-Jun-15 09:00S 32°40' E 152°41'611.4
2018-Jun-15 08:30S 32°44' E 152°36'611.5
2018-Jun-15 08:00S 32°47' E 152°30'612.1
2018-Jun-15 07:30S 32°50' E 152°24'612.2
2018-Jun-15 07:00S 32°52' E 152°17'611.6
2018-Jun-15 06:30S 32°54' E 152°11'611.1
2018-Jun-15 06:00S 32°56' E 152°04'611.6
2018-Jun-15 05:30S 32°57' E 151°58'510.7
2018-Jun-15 05:00S 32°56' E 151°51'3 6.7
2018-Jun-15 04:30S 32°55' E 151°48'2 3.3
2018-Jun-15 04:00S 32°54' E 151°46'1 0.4
2018-Jun-15 01:44S 32°53' E 151°46'0 0.0
2018-Jun-15 00:29S 32°53' E 151°46'0 0.0
2018-Jun-14 22:17S 32°53' E 151°46'0 0.0
2018-Jun-14 21:59S 32°53' E 151°46'0 0.0
2018-Jun-14 21:26S 32°53' E 151°46'0 0.0
2018-Jun-14 20:59S 32°53' E 151°46'0 0.0
2018-Jun-14 19:23S 32°53' E 151°46'0 0.0
2018-Jun-14 18:53S 32°53' E 151°46'0 0.0
2018-Jun-14 18:29S 32°53' E 151°46'0 0.0
2018-Jun-14 17:56S 32°53' E 151°46'0 0.0
2018-Jun-14 17:29S 32°53' E 151°46'0 0.0
2018-Jun-14 16:59S 32°53' E 151°46'0 0.0
2018-Jun-14 16:23S 32°53' E 151°46'0 0.0
2018-Jun-14 15:50S 32°53' E 151°46'0 0.0
2018-Jun-14 15:26S 32°53' E 151°46'0 0.0
2018-Jun-14 14:59S 32°53' E 151°46'0 0.0
2018-Jun-14 14:29S 32°53' E 151°46'0 0.0
2018-Jun-14 13:59S 32°53' E 151°46'0 0.0
2018-Jun-14 13:29S 32°53' E 151°46'0 0.1
2018-Jun-14 13:00S 32°53' E 151°46'2 3.2
2018-Jun-14 12:30S 32°55' E 151°46'3 6.5
2018-Jun-14 12:01S 32°55' E 151°50'4 8.4
2018-Jun-14 11:31S 32°59' E 151°53'3 5.9
2018-Jun-14 11:00S 33°01' E 151°51'510.8
2018-Jun-14 10:30S 33°06' E 151°48'510.0
2018-Jun-14 10:01S 33°09' E 151°43'0 0.4
2018-Jun-14 09:31S 33°09' E 151°43'0 0.1
2018-Jun-14 08:47S 33°09' E 151°43'0 0.0
2018-Jun-13 15:08S 33°09' E 151°43'0 0.0
2018-Jun-13 10:35S 33°09' E 151°43'0 0.0
2018-Jun-12 22:56S 33°09' E 151°43'0 0.0
2018-Jun-12 22:26S 33°09' E 151°43'0 0.0
2018-Jun-12 21:56S 33°09' E 151°43'0 0.0
2018-Jun-12 21:26S 33°09' E 151°43'0 0.0
2018-Jun-12 20:56S 33°09' E 151°43'0 0.0
2018-Jun-12 20:26S 33°09' E 151°43'0 0.0
2018-Jun-12 19:56S 33°09' E 151°43'0 0.0
2018-Jun-12 19:26S 33°09' E 151°43'0 0.0
2018-Jun-12 18:59S 33°09' E 151°43'0 0.0
2018-Jun-12 18:29S 33°09' E 151°43'0 0.0
2018-Jun-12 17:56S 33°09' E 151°43'0 0.0
2018-Jun-12 17:29S 33°09' E 151°43'0 0.1
2018-Jun-12 16:44S 33°09' E 151°43'0 0.2
2018-Jun-12 16:26S 33°09' E 151°43'0 0.0
2018-Jun-12 15:53S 33°09' E 151°43'0 0.0
2018-Jun-12 15:23S 33°09' E 151°43'0 0.0
2018-Jun-12 14:59S 33°09' E 151°43'0 0.1
2018-Jun-12 14:29S 33°09' E 151°43'0 0.0
2018-Jun-12 13:59S 33°09' E 151°43'0 0.0
2018-Jun-12 13:26S 33°09' E 151°43'0 0.0
2018-Jun-12 12:56S 33°09' E 151°43'0 0.1
2018-Jun-12 12:29S 33°09' E 151°43'0 0.1
2018-Jun-12 11:59S 33°09' E 151°43'0 0.0
2018-Jun-12 11:29S 33°09' E 151°43'0 0.1
2018-Jun-12 10:59S 33°09' E 151°43'0 0.0
2018-Jun-12 10:29S 33°09' E 151°43'0 0.0
2018-Jun-12 09:56S 33°09' E 151°43'0 0.0
2018-Jun-12 09:29S 33°09' E 151°43'0 0.0
2018-Jun-12 07:08S 33°09' E 151°43'0 0.0
2018-Jun-12 06:47S 33°09' E 151°43'0 0.0
2018-Jun-12 05:59S 33°09' E 151°43'0 0.0
2018-Jun-12 05:02S 33°09' E 151°43'0 0.0
2018-Jun-12 04:50S 33°09' E 151°43'0 0.0
2018-Jun-12 04:29S 33°09' E 151°43'0 0.0
2018-Jun-12 02:08S 33°09' E 151°43'0 0.0
2018-Jun-12 01:50S 33°09' E 151°43'0 0.0
2018-Jun-12 01:29S 33°09' E 151°43'0 0.0
2018-Jun-12 00:59S 33°09' E 151°43'0 0.0
2018-Jun-12 00:29S 33°09' E 151°43'0 0.0
2018-Jun-11 23:59S 33°09' E 151°43'0 0.0
2018-Jun-11 23:29S 33°09' E 151°43'0 0.1
2018-Jun-11 22:59S 33°09' E 151°43'0 0.0
2018-Jun-11 22:11S 33°09' E 151°43'0 0.1
2018-Jun-11 21:59S 33°09' E 151°43'0 0.1
2018-Jun-11 21:29S 33°09' E 151°43'0 0.0
2018-Jun-11 20:47S 33°09' E 151°43'0 0.2
2018-Jun-11 20:26S 33°09' E 151°43'0 0.0
2018-Jun-11 19:08S 33°09' E 151°43'0 0.1
2018-Jun-11 18:44S 33°09' E 151°43'0 0.0
2018-Jun-11 18:23S 33°09' E 151°43'0 0.1
2018-Jun-11 17:59S 33°09' E 151°43'0 0.0
2018-Jun-11 17:23S 33°09' E 151°43'0 0.0
2018-Jun-11 16:59S 33°09' E 151°43'0 0.0
2018-Jun-11 16:29S 33°09' E 151°43'0 0.1
2018-Jun-11 15:59S 33°09' E 151°43'0 0.1
2018-Jun-11 15:29S 33°09' E 151°43'0 0.2
2018-Jun-11 14:59S 33°09' E 151°43'0 0.1
2018-Jun-11 14:29S 33°09' E 151°43'0 0.1
2018-Jun-11 13:59S 33°09' E 151°43'0 0.1
2018-Jun-11 13:23S 33°09' E 151°43'0 0.0
2018-Jun-11 12:17S 33°09' E 151°43'0 0.1
2018-Jun-11 11:53S 33°09' E 151°43'0 0.0
2018-Jun-11 11:29S 33°09' E 151°43'0 0.0
2018-Jun-11 10:56S 33°09' E 151°43'0 0.0
2018-Jun-11 10:20S 33°09' E 151°43'0 0.0
2018-Jun-11 08:23S 33°09' E 151°43'0 0.0
2018-Jun-11 06:59S 33°09' E 151°43'0 0.0
2018-Jun-11 06:29S 33°09' E 151°43'0 0.0
2018-Jun-10 17:44S 33°09' E 151°43'0 0.1
2018-Jun-10 17:20S 33°09' E 151°43'0 0.1
2018-Jun-10 15:47S 33°09' E 151°43'0 0.0
2018-Jun-10 06:50S 33°09' E 151°43'0 0.0
2018-Jun-10 04:26S 33°09' E 151°43'0 0.0
2018-Jun-09 00:50S 33°09' E 151°43'0 0.0
2018-Jun-08 22:29S 33°09' E 151°43'0 0.1
2018-Jun-08 21:29S 33°09' E 151°43'0 0.0
2018-Jun-08 20:50S 33°09' E 151°43'0 0.0
2018-Jun-08 20:29S 33°09' E 151°43'0 0.0
2018-Jun-08 19:53S 33°09' E 151°43'0 0.0
2018-Jun-08 11:26S 33°09' E 151°43'0 0.0
2018-Jun-08 09:44S 33°09' E 151°43'0 0.0
2018-Jun-08 09:14S 33°09' E 151°43'0 0.0
2018-Jun-08 08:59S 33°09' E 151°43'0 0.1
2018-Jun-08 08:20S 33°09' E 151°43'0 0.1
2018-Jun-08 07:50S 33°09' E 151°43'0 0.0
2018-Jun-08 07:26S 33°09' E 151°43'0 0.0
2018-Jun-08 05:20S 33°09' E 151°43'0 0.0
2018-Jun-08 03:59S 33°09' E 151°43'0 0.0
2018-Jun-08 03:29S 33°09' E 151°43'0 0.0
2018-Jun-08 02:59S 33°09' E 151°43'0 0.1
2018-Jun-08 02:29S 33°09' E 151°43'0 0.1
2018-Jun-08 01:59S 33°09' E 151°43'0 0.0
2018-Jun-08 01:26S 33°09' E 151°43'0 0.0
2018-Jun-08 00:59S 33°09' E 151°43'0 0.0
2018-Jun-08 00:29S 33°09' E 151°43'0 0.0
2018-Jun-07 23:59S 33°09' E 151°43'0 0.0
2018-Jun-07 23:26S 33°09' E 151°43'0 0.0
2018-Jun-07 22:59S 33°09' E 151°43'0 0.1
2018-Jun-07 22:26S 33°09' E 151°43'0 0.1
2018-Jun-07 21:59S 33°09' E 151°43'0 0.1
2018-Jun-07 21:29S 33°09' E 151°43'0 0.0
2018-Jun-07 20:56S 33°09' E 151°43'0 0.0
2018-Jun-07 20:20S 33°09' E 151°43'0 0.1
2018-Jun-07 19:56S 33°09' E 151°43'0 0.0
2018-Jun-07 19:29S 33°09' E 151°43'0 0.0
2018-Jun-07 18:59S 33°09' E 151°43'0 0.0
2018-Jun-07 18:29S 33°09' E 151°43'0 0.0
2018-Jun-07 17:59S 33°09' E 151°43'0 0.1
2018-Jun-07 17:08S 33°09' E 151°43'0 0.3
2018-Jun-07 16:56S 33°09' E 151°43'0 0.1
2018-Jun-07 16:08S 33°09' E 151°43'0 0.1
2018-Jun-07 15:56S 33°09' E 151°43'0 0.0
2018-Jun-07 15:05S 33°09' E 151°43'0 0.1
2018-Jun-07 14:59S 33°09' E 151°43'0 0.0
2018-Jun-07 11:32S 33°09' E 151°43'0 0.0
2018-Jun-07 05:02S 33°09' E 151°43'0 0.0
2018-Jun-07 04:38S 33°09' E 151°43'0 0.0
2018-Jun-07 04:26S 33°09' E 151°43'0 0.0
2018-Jun-07 03:56S 33°09' E 151°43'0 0.0
2018-Jun-07 03:26S 33°09' E 151°43'0 0.0
2018-Jun-06 23:05S 33°09' E 151°43'10 1.3
2018-Jun-06 15:41S 33°04' E 151°52'313.1
2018-Jun-06 15:27S 33°02' E 151°55'612.6
2018-Jun-06 15:00S 32°59' E 152°01'714.3
2018-Jun-06 14:30S 32°57' E 152°09'  

Dump ship's entire track history